Time;durP1;ratioP1;P1;durP2;ratioP2;P2;SDS_P1;SDS_P2;PMS_P1;PMS_P2;Temp;Humidity;BMP_temperature;BMP_pressure;BME280_temperature;BME280_humidity;BME280_pressure;Samples;Min_cycle;Max_cycle;Signal;HPM_P1;HPM_P2
2021/03/14 00:00:43;;;;;;;56.10;39.70;;;6.90;99.90;;;;;;5097175;28;20168;-67
2021/03/14 00:03:12;;;;;;;58.25;40.80;;;6.90;99.90;;;;;;5097058;28;20208;-68
2021/03/14 00:05:43;;;;;;;59.42;37.72;;;6.90;99.90;;;;;;5097189;28;20176;-68
2021/03/14 00:08:09;;;;;;;54.95;37.85;;;6.90;99.90;;;;;;5097147;28;20223;-67
2021/03/14 00:10:35;;;;;;;57.88;39.20;;;6.90;99.90;;;;;;5097106;28;20173;-69
2021/03/14 00:13:01;;;;;;;62.50;40.13;;;7.00;99.90;;;;;;5096927;28;20218;-69
2021/03/14 00:15:27;;;;;;;54.00;39.50;;;7.00;99.90;;;;;;5096957;28;20173;-67
2021/03/14 00:17:53;;;;;;;50.42;35.75;;;7.00;99.90;;;;;;5095424;28;20226;-69
2021/03/14 00:20:22;;;;;;;53.40;37.10;;;7.00;99.90;;;;;;5096918;28;20247;-68
2021/03/14 00:22:48;;;;;;;60.72;40.88;;;7.00;99.90;;;;;;5096629;28;20185;-68
2021/03/14 00:25:14;;;;;;;55.53;39.40;;;7.00;99.90;;;;;;5096728;28;20172;-69
2021/03/14 00:27:43;;;;;;;55.20;38.72;;;6.90;99.90;;;;;;5095690;28;20185;-67
2021/03/14 00:30:12;;;;;;;57.15;39.85;;;6.90;99.90;;;;;;5096109;28;20605;-67
2021/03/14 00:32:38;;;;;;;60.00;43.63;;;7.00;99.90;;;;;;5096416;28;20179;-67
2021/03/14 00:35:06;;;;;;;56.80;39.55;;;7.00;99.90;;;;;;5095198;28;20649;-67
2021/03/14 00:37:32;;;;;;;52.38;38.35;;;7.00;99.90;;;;;;5096268;28;20251;-69
2021/03/14 00:39:57;;;;;;;54.50;39.40;;;7.00;99.90;;;;;;5096373;28;20198;-68
2021/03/14 00:42:23;;;;;;;59.30;40.20;;;6.90;99.90;;;;;;5096473;28;20228;-67
2021/03/14 00:44:48;;;;;;;59.60;42.50;;;7.00;99.90;;;;;;5096189;28;20215;-68
2021/03/14 00:47:14;;;;;;;59.73;38.53;;;7.00;99.90;;;;;;5096795;28;20262;-67
2021/03/14 00:49:40;;;;;;;58.17;40.23;;;7.10;99.90;;;;;;5096144;28;20196;-66
2021/03/14 00:52:05;;;;;;;58.00;42.43;;;6.90;99.90;;;;;;5095162;28;20176;-67
2021/03/14 00:54:33;;;;;;;54.87;40.23;;;7.00;99.90;;;;;;5096012;28;20192;-68
2021/03/14 00:56:59;;;;;;;54.78;39.42;;;7.10;99.90;;;;;;5094869;28;20258;-68
2021/03/14 00:59:24;;;;;;;53.63;39.50;;;7.10;99.90;;;;;;5095931;28;20208;-68
2021/03/14 01:01:50;;;;;;;60.90;40.30;;;7.10;99.90;;;;;;5096356;28;20175;-69
2021/03/14 01:04:15;;;;;;;54.67;40.80;;;7.00;99.90;;;;;;5094583;28;20196;-68
2021/03/14 01:06:41;;;;;;;57.30;39.23;;;7.00;99.90;;;;;;5096230;28;20581;-67
2021/03/14 01:09:07;;;;;;;50.37;36.00;;;7.00;99.90;;;;;;5095948;28;20207;-67
2021/03/14 01:11:32;;;;;;;49.50;37.73;;;6.90;99.90;;;;;;5094585;28;20172;-67
2021/03/14 01:13:58;;;;;;;54.33;37.70;;;6.90;99.90;;;;;;5095759;28;20212;-68
2021/03/14 01:16:23;;;;;;;50.53;36.37;;;6.90;99.90;;;;;;5094304;28;20307;-69
2021/03/14 01:18:49;;;;;;;54.30;37.23;;;6.90;99.90;;;;;;5095560;28;20196;-68
2021/03/14 01:21:14;;;;;;;52.63;36.50;;;6.80;99.90;;;;;;5095864;28;20533;-68
2021/03/14 01:23:40;;;;;;;53.50;40.27;;;6.80;99.90;;;;;;5095443;28;20633;-67
2021/03/14 01:26:08;;;;;;;54.67;38.60;;;6.70;99.90;;;;;;5094358;28;20633;-69
2021/03/14 01:28:34;;;;;;;54.75;35.05;;;6.70;99.90;;;;;;5095437;28;20246;-70
2021/03/14 01:31:00;;;;;;;54.57;39.97;;;6.60;99.90;;;;;;5095340;28;20200;-68
2021/03/14 01:33:26;;;;;;;56.83;41.63;;;6.60;99.90;;;;;;5095285;28;20245;-68
2021/03/14 01:35:52;;;;;;;56.27;39.53;;;6.60;99.90;;;;;;5095836;28;20614;-68
2021/03/14 01:38:17;;;;;;;53.13;38.40;;;6.60;99.90;;;;;;5095175;28;20224;-67
2021/03/14 01:40:43;;;;;;;53.37;36.73;;;6.60;99.90;;;;;;5094762;28;20218;-67
2021/03/14 01:43:09;;;;;;;62.33;42.60;;;6.60;99.90;;;;;;5095161;28;20192;-68
2021/03/14 01:45:34;;;;;;;49.90;35.83;;;6.60;99.90;;;;;;5095206;28;20172;-67
2021/03/14 01:48:03;;;;;;;54.67;38.73;;;6.60;99.90;;;;;;5095159;28;20450;-69
2021/03/14 01:50:30;;;;;;;56.90;38.47;;;6.60;99.90;;;;;;5095106;28;20258;-68
2021/03/14 01:52:56;;;;;;;53.08;38.28;;;6.70;99.90;;;;;;5093735;28;20200;-68
2021/03/14 01:55:23;;;;;;;55.70;40.08;;;6.70;99.90;;;;;;5095013;28;20214;-69
2021/03/14 01:57:49;;;;;;;48.20;37.40;;;6.80;99.90;;;;;;5094662;28;20677;-67
2021/03/14 02:00:18;;;;;;;53.70;38.10;;;6.80;99.90;;;;;;5094872;28;20252;-67
2021/03/14 02:02:44;;;;;;;52.17;39.08;;;6.80;99.90;;;;;;5093497;28;20212;-67
2021/03/14 02:05:12;;;;;;;54.03;38.95;;;6.70;99.90;;;;;;5094783;28;20692;-67
2021/03/14 02:07:40;;;;;;;54.25;37.85;;;6.70;99.90;;;;;;5094639;28;20215;-67
2021/03/14 02:10:07;;;;;;;47.25;34.88;;;6.70;99.90;;;;;;5094661;28;20536;-67
2021/03/14 02:12:39;;;;;;;48.88;35.63;;;6.70;99.90;;;;;;5094479;28;20180;-67
2021/03/14 02:15:06;;;;;;;50.47;33.42;;;6.60;99.90;;;;;;5094731;28;20163;-69
2021/03/14 02:17:35;;;;;;;52.50;37.25;;;6.50;99.90;;;;;;5094273;28;20212;-68
2021/03/14 02:20:19;;;;;;;44.42;32.92;;;6.60;99.90;;;;;;5094438;28;20168;-69
2021/03/14 02:22:48;;;;;;;45.30;34.03;;;6.60;99.90;;;;;;5094376;28;20618;-67
2021/03/14 02:25:23;;;;;;;47.15;35.08;;;6.60;99.90;;;;;;5093105;28;20177;-69
2021/03/14 02:27:49;;;;;;;48.72;34.42;;;6.60;99.90;;;;;;5094362;28;20508;-68
2021/03/14 02:30:16;;;;;;;49.38;36.45;;;6.70;99.90;;;;;;5094398;28;20168;-68
2021/03/14 02:32:42;;;;;;;50.92;36.25;;;6.70;99.90;;;;;;5094171;28;20641;-67
2021/03/14 02:35:09;;;;;;;42.65;31.92;;;6.80;99.90;;;;;;5092957;28;20186;-69
2021/03/14 02:37:36;;;;;;;41.97;31.52;;;6.80;99.90;;;;;;5094043;28;20255;-68
2021/03/14 02:40:04;;;;;;;44.42;32.28;;;6.70;99.90;;;;;;5092817;28;20222;-69
2021/03/14 02:42:30;;;;;;;48.83;34.17;;;6.60;99.90;;;;;;5092761;28;20243;-67
2021/03/14 02:44:57;;;;;;;42.30;32.33;;;6.80;99.90;;;;;;5094170;28;20179;-69
2021/03/14 02:47:24;;;;;;;45.72;33.25;;;6.80;99.90;;;;;;5092946;28;20207;-67
2021/03/14 02:49:51;;;;;;;49.38;34.88;;;6.80;99.90;;;;;;5093904;28;20687;-68
2021/03/14 02:52:23;;;;;;;48.88;36.00;;;7.00;99.90;;;;;;5093819;28;20622;-67
2021/03/14 02:54:53;;;;;;;51.55;35.40;;;7.10;99.90;;;;;;5093818;28;20669;-68
2021/03/14 02:57:20;;;;;;;52.47;39.58;;;7.00;99.90;;;;;;5094491;28;20527;-68
2021/03/14 02:59:49;;;;;;;51.97;38.17;;;7.10;99.90;;;;;;5093881;28;20200;-68
2021/03/14 03:02:16;;;;;;;43.72;33.67;;;7.10;99.90;;;;;;5094369;28;20173;-68
2021/03/14 03:04:43;;;;;;;45.92;32.40;;;7.00;99.90;;;;;;5093735;28;20218;-67
2021/03/14 03:07:09;;;;;;;44.53;33.30;;;7.10;99.90;;;;;;5094279;28;20168;-69
2021/03/14 03:09:35;;;;;;;37.15;29.70;;;7.20;99.90;;;;;;5093674;28;20196;-66
2021/03/14 03:12:01;;;;;;;36.90;28.07;;;7.20;99.90;;;;;;5094239;28;20685;-68
2021/03/14 03:14:30;;;;;;;35.13;27.55;;;7.20;99.90;;;;;;5093678;28;20600;-67
2021/03/14 03:16:56;;;;;;;33.35;25.63;;;7.40;99.90;;;;;;5094077;28;20248;-67
2021/03/14 03:19:23;;;;;;;31.40;24.73;;;7.40;99.90;;;;;;5092356;28;20211;-68
2021/03/14 03:21:51;;;;;;;32.63;24.98;;;7.40;99.90;;;;;;5094061;28;20413;-67
2021/03/14 03:24:16;;;;;;;31.85;25.95;;;7.50;99.90;;;;;;5093699;28;20196;-67
2021/03/14 03:26:46;;;;;;;28.90;22.30;;;7.60;99.90;;;;;;5094009;28;20524;-68
2021/03/14 03:29:13;;;;;;;29.70;21.95;;;7.60;99.90;;;;;;5093524;28;20297;-67
2021/03/14 03:31:39;;;;;;;27.08;21.20;;;7.70;99.90;;;;;;5092437;28;20180;-68
2021/03/14 03:34:06;;;;;;;30.00;22.27;;;7.70;99.90;;;;;;5093640;28;20229;-69
2021/03/14 03:36:32;;;;;;;28.05;22.05;;;7.60;99.90;;;;;;5093769;28;20948;-68
2021/03/14 03:39:00;;;;;;;28.67;21.17;;;7.70;99.90;;;;;;5093500;28;20237;-67
2021/03/14 03:41:28;;;;;;;29.88;21.20;;;7.80;99.90;;;;;;5093271;28;20449;-69
2021/03/14 03:43:56;;;;;;;27.65;21.45;;;7.70;99.90;;;;;;5093495;28;20201;-67
2021/03/14 03:46:23;;;;;;;27.60;20.77;;;7.80;99.90;;;;;;5093701;28;20562;-69
2021/03/14 03:48:51;;;;;;;27.15;20.83;;;7.90;99.90;;;;;;5093361;28;20235;-68
2021/03/14 03:51:20;;;;;;;27.95;20.10;;;8.00;99.90;;;;;;5093727;28;20173;-68
2021/03/14 03:53:47;;;;;;;29.40;20.13;;;7.90;99.90;;;;;;5093270;28;20192;-69
2021/03/14 03:56:13;;;;;;;21.48;19.17;;;8.00;99.90;;;;;;5093568;28;20184;-68
2021/03/14 03:58:40;;;;;;;25.27;19.75;;;8.10;99.90;;;;;;5093273;28;20204;-66
2021/03/14 04:01:09;;;;;;;21.60;17.90;;;8.10;99.90;;;;;;5093528;28;20568;-68
2021/03/14 04:03:39;;;;;;;21.77;18.23;;;8.10;99.90;;;;;;5095694;28;20207;-67
2021/03/14 04:06:06;;;;;;;19.95;16.88;;;8.20;99.90;;;;;;5097003;28;20175;-67
2021/03/14 04:08:33;;;;;;;22.73;19.20;;;8.30;99.90;;;;;;5096984;28;20257;-67
2021/03/14 04:11:00;;;;;;;20.63;17.55;;;8.20;99.90;;;;;;5097133;28;20207;-68
2021/03/14 04:13:27;;;;;;;23.48;17.60;;;8.30;99.90;;;;;;5096918;28;20280;-69
2021/03/14 04:15:53;;;;;;;23.77;17.23;;;8.30;99.90;;;;;;5096901;28;20638;-68
2021/03/14 04:18:19;;;;;;;22.27;16.67;;;8.30;99.90;;;;;;5096684;28;20220;-67
2021/03/14 04:20:48;;;;;;;24.00;17.17;;;8.40;99.90;;;;;;5096899;28;20516;-67
2021/03/14 04:23:17;;;;;;;23.40;18.02;;;8.40;99.90;;;;;;5096677;28;20677;-67
2021/03/14 04:25:44;;;;;;;23.38;17.60;;;8.50;99.90;;;;;;5096730;28;20187;-68
2021/03/14 04:28:11;;;;;;;23.20;17.30;;;8.50;99.90;;;;;;5096558;28;20204;-68
2021/03/14 04:30:36;;;;;;;21.75;17.83;;;8.50;99.90;;;;;;5096657;28;20173;-68
2021/03/14 04:33:03;;;;;;;21.63;16.90;;;8.50;99.90;;;;;;5096472;28;20200;-68
2021/03/14 04:35:29;;;;;;;24.08;17.38;;;8.50;99.90;;;;;;5096560;28;20630;-67
2021/03/14 04:37:56;;;;;;;23.80;17.60;;;8.50;99.90;;;;;;5096328;28;20216;-67
2021/03/14 04:40:23;;;;;;;22.98;17.00;;;8.50;99.90;;;;;;5096467;28;20238;-69
2021/03/14 04:42:52;;;;;;;22.20;16.15;;;8.50;99.90;;;;;;5096366;28;20747;-68
2021/03/14 04:45:19;;;;;;;20.75;15.43;;;8.50;99.90;;;;;;5096342;28;20169;-68
2021/03/14 04:47:46;;;;;;;20.25;15.05;;;8.50;99.90;;;;;;5096173;28;20199;-67
2021/03/14 04:50:18;;;;;;;23.25;16.05;;;8.60;99.90;;;;;;5094998;28;20172;-67
2021/03/14 04:52:45;;;;;;;22.92;15.98;;;8.60;99.90;;;;;;5096208;28;20168;-68
2021/03/14 04:55:14;;;;;;;20.55;15.95;;;8.60;99.90;;;;;;5096174;28;20184;-68
2021/03/14 04:57:40;;;;;;;20.60;16.70;;;8.50;99.90;;;;;;5094624;28;20627;-67
2021/03/14 05:00:09;;;;;;;19.77;15.32;;;8.40;99.90;;;;;;5096111;28;20175;-67
2021/03/14 05:02:36;;;;;;;21.08;15.77;;;8.40;99.90;;;;;;5095877;28;20680;-67
2021/03/14 05:05:03;;;;;;;21.48;16.35;;;8.40;99.90;;;;;;5095882;28;20169;-69
2021/03/14 05:07:30;;;;;;;16.90;14.50;;;8.50;99.90;;;;;;5095787;28;20226;-67
2021/03/14 05:09:58;;;;;;;18.08;14.43;;;8.50;99.90;;;;;;5094475;28;20223;-67
2021/03/14 05:12:24;;;;;;;19.70;17.00;;;8.50;99.90;;;;;;5096389;28;20630;-67
2021/03/14 05:14:50;;;;;;;19.90;15.93;;;8.40;99.90;;;;;;5093597;28;20204;-68
2021/03/14 05:17:17;;;;;;;22.58;17.63;;;8.40;99.90;;;;;;5096166;28;20248;-68
2021/03/14 05:19:43;;;;;;;18.65;15.48;;;8.40;99.90;;;;;;5095577;28;20634;-67
2021/03/14 05:22:09;;;;;;;21.42;17.38;;;8.50;99.90;;;;;;5094631;28;20702;-68
2021/03/14 05:24:35;;;;;;;20.90;17.77;;;8.50;99.90;;;;;;5094216;28;20196;-67
2021/03/14 05:27:03;;;;;;;18.73;15.30;;;8.60;99.90;;;;;;5095468;28;20184;-68
2021/03/14 05:29:30;;;;;;;25.27;19.38;;;8.50;99.90;;;;;;5095370;28;20424;-68
2021/03/14 05:31:57;;;;;;;24.58;19.10;;;8.40;99.90;;;;;;5095910;28;20173;-67
2021/03/14 05:34:24;;;;;;;24.02;17.88;;;8.20;99.90;;;;;;5095302;28;20196;-69
2021/03/14 05:36:50;;;;;;;20.90;15.57;;;8.10;99.90;;;;;;5094065;28;20216;-67
2021/03/14 05:39:15;;;;;;;23.38;16.45;;;8.20;99.90;;;;;;5094006;28;20662;-67
2021/03/14 05:41:42;;;;;;;23.30;18.40;;;8.20;99.90;;;;;;5093796;28;20259;-67
2021/03/14 05:44:10;;;;;;;23.00;17.20;;;8.30;99.90;;;;;;5095143;28;20245;-68
2021/03/14 05:46:36;;;;;;;24.70;18.75;;;8.20;99.90;;;;;;5094113;28;20633;-67
2021/03/14 05:49:03;;;;;;;26.60;19.90;;;8.20;99.90;;;;;;5095047;28;20192;-68
2021/03/14 05:51:34;;;;;;;25.35;19.88;;;8.20;99.90;;;;;;5095351;28;20173;-67
2021/03/14 05:54:00;;;;;;;23.95;19.98;;;8.30;99.90;;;;;;5095131;28;20207;-67
2021/03/14 05:56:27;;;;;;;23.60;20.17;;;8.30;99.90;;;;;;5095259;28;20169;-67
2021/03/14 05:58:55;;;;;;;21.95;17.38;;;8.40;99.90;;;;;;5094973;28;20204;-68
2021/03/14 06:01:25;;;;;;;22.63;18.02;;;8.30;99.90;;;;;;5093734;28;20653;-70
2021/03/14 06:03:53;;;;;;;22.90;17.70;;;8.40;99.90;;;;;;5094768;28;20924;-67
2021/03/14 06:06:19;;;;;;;23.63;17.90;;;8.40;99.90;;;;;;5093617;28;20638;-68
2021/03/14 06:08:44;;;;;;;23.90;17.52;;;8.30;99.90;;;;;;5094664;28;20234;-68
2021/03/14 06:11:13;;;;;;;24.50;18.07;;;8.40;99.90;;;;;;5095018;28;20527;-67
2021/03/14 06:13:39;;;;;;;21.10;17.40;;;8.40;99.90;;;;;;5094553;28;20556;-68
2021/03/14 06:16:06;;;;;;;18.42;15.93;;;8.50;99.90;;;;;;5094805;28;20224;-67
2021/03/14 06:18:32;;;;;;;20.20;16.10;;;8.60;99.90;;;;;;5094344;28;20228;-68
2021/03/14 06:20:58;;;;;;;21.58;16.70;;;8.60;99.90;;;;;;5094601;28;20183;-67
2021/03/14 06:23:24;;;;;;;19.77;16.97;;;8.60;99.90;;;;;;5093142;28;20196;-67
2021/03/14 06:25:54;;;;;;;17.10;15.30;;;8.70;99.90;;;;;;5094783;28;20184;-68
2021/03/14 06:28:36;;;;;;;21.15;15.75;;;8.70;99.90;;;;;;5094504;28;20196;-67
2021/03/14 06:31:19;;;;;;;22.45;16.52;;;8.80;99.90;;;;;;5094642;28;20621;-67
2021/03/14 06:33:45;;;;;;;21.42;16.67;;;8.90;99.90;;;;;;5094348;28;20691;-67
2021/03/14 06:36:16;;;;;;;22.80;17.50;;;8.90;99.90;;;;;;5094420;28;20168;-68
2021/03/14 06:38:42;;;;;;;19.98;17.05;;;9.00;99.90;;;;;;5094110;28;20425;-68
2021/03/14 06:41:07;;;;;;;20.27;17.08;;;9.00;99.90;;;;;;5094086;28;20220;-69
2021/03/14 06:43:35;;;;;;;22.60;19.00;;;9.00;99.90;;;;;;5094140;28;20554;-69
2021/03/14 06:46:02;;;;;;;21.38;17.13;;;9.10;99.90;;;;;;5094292;28;20183;-68
2021/03/14 06:48:28;;;;;;;30.88;22.45;;;9.30;99.90;;;;;;5093974;28;20775;-68
2021/03/14 06:50:54;;;;;;;24.15;16.77;;;9.50;99.90;;;;;;5094261;28;20172;-68
2021/03/14 06:53:22;;;;;;;19.80;15.25;;;9.60;99.90;;;;;;5094159;28;20207;-67
2021/03/14 06:56:02;;;;;;;22.65;15.85;;;9.80;99.90;;;;;;5092731;28;20183;-68
2021/03/14 06:58:31;;;;;;;21.73;14.50;;;9.80;99.90;;;;;;5093833;28;20219;-67
2021/03/14 07:01:15;;;;;;;17.63;14.55;;;9.90;99.90;;;;;;5092685;28;20177;-68
2021/03/14 07:03:45;;;;;;;19.98;16.55;;;10.00;99.90;;;;;;5093882;28;20600;-67
2021/03/14 07:06:14;;;;;;;17.42;14.38;;;10.10;99.90;;;;;;5093977;28;20605;-69
2021/03/14 07:08:39;;;;;;;19.83;14.95;;;10.20;99.90;;;;;;5093755;28;20196;-69
2021/03/14 07:11:05;;;;;;;18.43;14.33;;;10.40;99.90;;;;;;5092539;28;20182;-68
2021/03/14 07:13:31;;;;;;;16.63;13.53;;;10.50;99.90;;;;;;5093670;28;20432;-70
2021/03/14 07:15:58;;;;;;;19.10;14.70;;;10.60;99.90;;;;;;5094008;28;20634;-67
2021/03/14 07:18:24;;;;;;;17.83;14.68;;;10.70;99.90;;;;;;5093646;28;20472;-68
2021/03/14 07:20:50;;;;;;;18.70;13.73;;;10.80;99.90;;;;;;5093710;28;20171;-67
2021/03/14 07:23:16;;;;;;;16.03;14.30;;;10.80;99.90;;;;;;5093745;28;20499;-70
2021/03/14 07:25:44;;;;;;;20.27;14.98;;;10.80;99.90;;;;;;5093788;28;20196;-67
2021/03/14 07:28:11;;;;;;;18.33;14.85;;;10.80;99.90;;;;;;5093598;28;20564;-68
2021/03/14 07:30:37;;;;;;;17.75;13.52;;;10.80;99.90;;;;;;5093734;28;20187;-68
2021/03/14 07:33:04;;;;;;;20.77;18.45;;;10.80;99.90;;;;;;5093576;28;20204;-68
2021/03/14 07:35:30;;;;;;;22.23;16.55;;;10.90;99.90;;;;;;5093631;28;20164;-69
2021/03/14 07:37:57;;;;;;;17.20;14.10;;;11.10;99.90;;;;;;5094941;28;20224;-69
2021/03/14 07:40:29;;;;;;;15.25;13.25;;;11.10;99.90;;;;;;5097554;28;20405;-67
2021/03/14 07:43:01;;;;;;;16.00;13.30;;;11.30;99.90;;;;;;5096305;28;20240;-70
2021/03/14 07:45:28;;;;;;;14.85;13.30;;;11.30;99.90;;;;;;5097591;28;20172;-68
2021/03/14 07:47:54;;;;;;;15.70;13.27;;;11.20;99.90;;;;;;5097408;28;20195;-67
2021/03/14 07:50:43;;;;;;;18.23;14.50;;;11.30;99.90;;;;;;5097446;28;20181;-68
2021/03/14 07:53:10;;;;;;;18.00;13.65;;;11.40;99.90;;;;;;5096051;28;20435;-68
2021/03/14 07:55:38;;;;;;;21.15;18.95;;;11.50;99.90;;;;;;5097419;28;20621;-69
2021/03/14 07:58:04;;;;;;;17.88;15.65;;;11.50;99.90;;;;;;5097157;28;20562;-68
2021/03/14 08:00:36;;;;;;;18.75;15.70;;;11.50;99.90;;;;;;5097268;28;20180;-69
2021/03/14 08:03:06;;;;;;;14.40;12.50;;;11.60;99.90;;;;;;5097171;28;20279;-68
2021/03/14 08:05:48;;;;;;;15.90;12.63;;;11.70;99.90;;;;;;5095908;28;20305;-68
2021/03/14 08:08:26;;;;;;;19.90;13.65;;;11.70;99.90;;;;;;5097003;28;20425;-70
2021/03/14 08:10:53;;;;;;;14.68;12.27;;;11.70;99.90;;;;;;5096039;28;20172;-68
2021/03/14 08:13:30;;;;;;;16.23;13.05;;;11.60;99.90;;;;;;5096914;28;20192;-68
2021/03/14 08:16:07;;;;;;;17.25;14.05;;;11.70;99.90;;;;;;5096870;28;20176;-69
2021/03/14 08:18:46;;;;;;;16.85;13.50;;;11.80;99.90;;;;;;5096772;28;20332;-68
2021/03/14 08:21:21;;;;;;;16.40;12.80;;;11.80;99.90;;;;;;5095665;28;20655;-67
2021/03/14 08:23:51;;;;;;;17.55;14.23;;;11.80;99.90;;;;;;5096637;28;20470;-69
2021/03/14 08:26:22;;;;;;;17.10;13.10;;;11.90;99.90;;;;;;5095517;28;20645;-68
2021/03/14 08:29:09;;;;;;;14.03;12.53;;;12.00;99.90;;;;;;5096621;28;20188;-68
2021/03/14 08:31:42;;;;;;;15.48;12.93;;;12.10;99.90;;;;;;5095545;28;20428;-68
2021/03/14 08:34:32;;;;;;;15.47;12.50;;;12.10;99.90;;;;;;5096463;28;20697;-70
2021/03/14 08:36:59;;;;;;;20.87;13.57;;;12.00;99.90;;;;;;5093506;28;20476;-69
2021/03/14 08:39:38;;;;;;;15.70;13.90;;;12.00;99.90;;;;;;5096310;28;20504;-68
2021/03/14 08:42:06;;;;;;;18.33;15.30;;;12.00;99.90;;;;;;5096447;28;20981;-69
2021/03/14 08:44:40;;;;;;;16.67;13.55;;;12.00;99.90;;;;;;5096240;28;20974;-68
2021/03/14 08:47:10;;;;;;;16.88;13.10;;;12.00;99.90;;;;;;5096810;28;20490;-68
2021/03/14 08:49:38;;;;;;;17.07;14.40;;;12.00;99.90;;;;;;5094991;28;20197;-69
2021/03/14 08:52:05;;;;;;;17.03;12.80;;;12.00;99.90;;;;;;5096862;28;20493;-68
2021/03/14 08:54:38;;;;;;;14.90;12.17;;;12.00;99.90;;;;;;5096100;28;20563;-71
2021/03/14 08:57:07;;;;;;;15.47;13.17;;;12.10;99.90;;;;;;5096488;28;20487;-67
2021/03/14 08:59:33;;;;;;;36.53;29.97;;;12.10;99.90;;;;;;5096022;28;20452;-69
2021/03/14 09:02:01;;;;;;;30.90;24.93;;;12.10;99.90;;;;;;5096393;28;20421;-68
2021/03/14 09:04:29;;;;;;;19.40;13.57;;;12.00;99.90;;;;;;5095986;28;20953;-67
2021/03/14 09:07:13;;;;;;;15.37;13.37;;;12.00;99.90;;;;;;5096499;28;20906;-68
2021/03/14 09:09:39;;;;;;;16.40;13.10;;;12.00;99.90;;;;;;5095904;28;20420;-68
2021/03/14 09:12:11;;;;;;;15.27;12.53;;;12.10;99.90;;;;;;5096401;28;20413;-68
2021/03/14 09:14:37;;;;;;;19.70;17.07;;;12.10;99.90;;;;;;5094474;28;20457;-68
2021/03/14 09:17:07;;;;;;;22.80;19.37;;;12.10;99.90;;;;;;5094701;28;20538;-68
2021/03/14 09:19:46;;;;;;;24.83;16.63;;;12.20;99.90;;;;;;5095656;28;20192;-69
2021/03/14 09:22:21;;;;;;;23.33;17.80;;;12.20;99.90;;;;;;5096196;28;20405;-69
2021/03/14 09:24:51;;;;;;;17.53;14.73;;;12.40;99.90;;;;;;5094298;28;20443;-69
2021/03/14 09:27:21;;;;;;;21.30;16.53;;;12.80;99.90;;;;;;5096136;28;20784;-70
2021/03/14 09:30:08;;;;;;;22.40;15.70;;;13.00;99.90;;;;;;5095417;28;20433;-69
2021/03/14 09:32:48;;;;;;;14.40;11.43;;;13.30;99.90;;;;;;5095417;28;20442;-69
2021/03/14 09:35:26;;;;;;;12.17;10.87;;;13.40;99.90;;;;;;5095518;28;20397;-68
2021/03/14 09:38:11;;;;;;;14.20;12.70;;;13.40;99.90;;;;;;5095518;28;20472;-68
2021/03/14 09:40:44;;;;;;;17.83;13.37;;;13.20;99.90;;;;;;5095347;28;20417;-68
2021/03/14 09:43:14;;;;;;;13.10;11.80;;;13.40;99.90;;;;;;5095211;28;20441;-68
2021/03/14 09:45:46;;;;;;;13.30;10.60;;;13.50;99.90;;;;;;5095296;28;20435;-68
2021/03/14 09:48:34;;;;;;;16.10;12.40;;;13.60;99.90;;;;;;5095408;28;20463;-68
2021/03/14 09:51:02;;;;;;;16.40;14.47;;;14.20;99.90;;;;;;5095383;28;20416;-68
2021/03/14 09:53:30;;;;;;;14.10;11.87;;;14.70;99.90;;;;;;5094956;28;20427;-69
2021/03/14 09:56:01;;;;;;;15.40;12.57;;;14.90;99.90;;;;;;5094842;28;20425;-69
2021/03/14 09:58:28;;;;;;;13.40;12.00;;;14.90;99.90;;;;;;5094772;28;20480;-69
2021/03/14 10:00:55;;;;;;;14.80;12.47;;;14.90;99.90;;;;;;5094833;28;20405;-70
2021/03/14 10:03:23;;;;;;;15.90;12.70;;;14.90;99.90;;;;;;5094831;28;20424;-69
2021/03/14 10:05:51;;;;;;;17.00;12.97;;;15.00;99.90;;;;;;5094966;28;20838;-71
2021/03/14 10:08:28;;;;;;;13.30;11.90;;;14.90;99.90;;;;;;5093488;28;21006;-69
2021/03/14 10:10:58;;;;;;;13.60;11.90;;;15.00;99.90;;;;;;5093403;28;20891;-69
2021/03/14 10:13:27;;;;;;;19.47;17.40;;;15.10;99.90;;;;;;5093353;28;20437;-69
2021/03/14 10:15:54;;;;;;;18.73;12.27;;;15.20;99.90;;;;;;5094883;28;20409;-68
2021/03/14 10:18:22;;;;;;;13.90;11.70;;;14.80;99.90;;;;;;5094408;28;20484;-70
2021/03/14 10:20:48;;;;;;;15.73;11.90;;;14.60;99.90;;;;;;5094629;28;20409;-70
2021/03/14 10:23:20;;;;;;;12.80;11.47;;;15.10;99.90;;;;;;5094378;28;20432;-70
2021/03/14 10:25:45;;;;;;;13.20;11.67;;;15.50;99.90;;;;;;5094655;28;20500;-69
2021/03/14 10:28:13;;;;;;;15.30;10.90;;;15.80;99.90;;;;;;5094335;28;20461;-69
2021/03/14 10:30:42;;;;;;;17.67;13.67;;;15.80;99.90;;;;;;5094405;28;20181;-70
2021/03/14 10:33:29;;;;;;;14.60;12.03;;;16.10;99.90;;;;;;5094344;28;20425;-70
2021/03/14 10:36:09;;;;;;;13.07;10.90;;;15.90;99.90;;;;;;5094512;28;20414;-69
2021/03/14 10:38:44;;;;;;;12.37;11.17;;;16.00;99.90;;;;;;5094083;28;20533;-69
2021/03/14 10:41:28;;;;;;;11.60;10.27;;;16.00;99.90;;;;;;5094260;28;20470;-71
2021/03/14 10:44:00;;;;;;;11.10;10.00;;;16.30;99.90;;;;;;5094148;28;20413;-69
2021/03/14 10:46:45;;;;;;;10.47;8.90;;;16.20;99.90;;;;;;5094460;28;20412;-70
2021/03/14 10:49:13;;;;;;;11.10;9.97;;;16.10;99.90;;;;;;5094051;28;20803;-71
2021/03/14 10:51:40;;;;;;;13.73;10.83;;;15.90;99.90;;;;;;5094321;28;20920;-69
2021/03/14 10:54:11;;;;;;;12.20;10.77;;;16.00;99.90;;;;;;5093942;28;20524;-69
2021/03/14 10:56:39;;;;;;;12.10;9.83;;;15.80;99.90;;;;;;5094205;28;21031;-69
2021/03/14 10:59:06;;;;;;;14.43;12.93;;;15.90;99.90;;;;;;5093897;28;20423;-68
2021/03/14 11:01:37;;;;;;;15.10;13.60;;;15.80;99.90;;;;;;5094037;28;20818;-68
2021/03/14 11:04:07;;;;;;;13.30;11.90;;;15.50;99.90;;;;;;5092816;28;20425;-70
2021/03/14 11:06:33;;;;;;;13.97;10.87;;;15.60;99.90;;;;;;5094113;28;20451;-69
2021/03/14 11:09:05;;;;;;;21.23;16.13;;;15.20;99.90;;;;;;5092503;28;20447;-69
2021/03/14 11:11:44;;;;;;;14.53;13.03;;;15.40;99.90;;;;;;5092513;28;20448;-68
2021/03/14 11:14:28;;;;;;;13.37;9.37;;;15.60;99.90;;;;;;5093591;28;20428;-69
2021/03/14 11:17:04;;;;;;;11.13;9.57;;;15.50;99.90;;;;;;5094190;28;20464;-69
2021/03/14 11:19:30;;;;;;;8.37;6.30;;;15.40;99.90;;;;;;5093613;28;20439;-69
2021/03/14 11:21:55;;;;;;;6.33;5.30;;;15.10;99.90;;;;;;5109531;28;20409;-69
2021/03/14 11:24:21;;;;;;;5.40;4.60;;;14.70;99.90;;;;;;5109316;28;20626;-68
2021/03/14 11:26:46;;;;;;;4.10;3.70;;;14.70;99.90;;;;;;5093535;28;20290;-68
2021/03/14 11:29:12;;;;;;;4.33;3.93;;;14.20;99.90;;;;;;5109292;28;20200;-70
2021/03/14 11:31:37;;;;;;;5.23;4.73;;;14.10;99.90;;;;;;5109463;28;20239;-68
2021/03/14 11:34:03;;;;;;;5.33;4.10;;;13.90;99.90;;;;;;5093650;28;20661;-69
2021/03/14 11:36:29;;;;;;;7.40;4.53;;;13.70;99.90;;;;;;5092381;28;20180;-69
2021/03/14 11:38:54;;;;;;;5.30;4.20;;;13.70;99.90;;;;;;5093522;28;20200;-69
2021/03/14 11:41:20;;;;;;;4.43;3.70;;;13.50;99.90;;;;;;5093423;28;20227;-68
2021/03/14 11:43:45;;;;;;;4.33;2.93;;;13.50;99.90;;;;;;5109148;28;20200;-68
2021/03/14 11:46:11;;;;;;;4.97;4.10;;;13.70;99.90;;;;;;5109322;28;20640;-68
2021/03/14 11:48:36;;;;;;;3.63;3.17;;;13.80;99.90;;;;;;5093386;28;20196;-70
2021/03/14 11:51:02;;;;;;;4.47;3.13;;;13.80;99.90;;;;;;5093628;28;20792;-68
2021/03/14 11:53:28;;;;;;;7.70;4.70;;;13.70;99.90;;;;;;5093296;28;20200;-70
2021/03/14 11:55:53;;;;;;;13.93;7.83;;;13.60;99.90;;;;;;5109135;28;20541;-68
2021/03/14 11:58:19;;;;;;;8.67;4.70;;;13.30;99.90;;;;;;5093187;28;20277;-68
2021/03/14 12:00:45;;;;;;;2.70;2.43;;;13.30;99.90;;;;;;5093461;28;20634;-69
2021/03/14 12:03:11;;;;;;;3.43;2.70;;;13.40;99.90;;;;;;5093180;28;20245;-69
2021/03/14 12:05:36;;;;;;;2.90;2.60;;;13.50;99.90;;;;;;5093372;28;20504;-68
2021/03/14 12:08:02;;;;;;;3.20;2.63;;;13.70;99.90;;;;;;5093217;28;20199;-68
2021/03/14 12:10:28;;;;;;;5.53;3.80;;;13.70;99.90;;;;;;5093334;28;20237;-68
2021/03/14 12:12:53;;;;;;;6.17;4.40;;;13.50;99.90;;;;;;5093177;28;20563;-67
2021/03/14 12:15:19;;;;;;;3.97;3.57;;;13.30;99.90;;;;;;5093242;28;20171;-68
2021/03/14 12:17:46;;;;;;;4.37;2.83;;;13.40;99.90;;;;;;5093007;28;20215;-67
2021/03/14 12:20:12;;;;;;;3.93;2.87;;;13.30;99.90;;;;;;5093297;28;20660;-68
2021/03/14 12:22:38;;;;;;;4.00;2.83;;;13.40;99.90;;;;;;5093054;28;20488;-68
2021/03/14 12:25:05;;;;;;;3.30;2.97;;;13.40;99.90;;;;;;5096026;28;20420;-67
2021/03/14 12:27:31;;;;;;;4.00;3.03;;;13.30;99.90;;;;;;5112576;28;20192;-69
2021/03/14 12:29:56;;;;;;;3.53;3.23;;;13.20;99.90;;;;;;5096721;28;20416;-69
2021/03/14 12:32:22;;;;;;;5.97;4.20;;;13.10;99.90;;;;;;5097113;28;20218;-69
2021/03/14 12:34:48;;;;;;;3.40;3.10;;;13.10;99.90;;;;;;5096468;28;20212;-68
2021/03/14 12:37:13;;;;;;;5.20;3.47;;;13.20;99.90;;;;;;5112418;28;20208;-69
2021/03/14 12:39:39;;;;;;;5.63;3.07;;;13.40;99.90;;;;;;5096430;28;20200;-67
2021/03/14 12:42:05;;;;;;;4.00;3.60;;;13.20;99.90;;;;;;5112184;28;20319;-68